createdAt,value
2023-05-03T00:01:58.578Z,97.93
2023-05-03T00:04:32.166Z,98.02
2023-05-03T00:07:05.729Z,98.29
2023-05-03T00:09:38.526Z,98.43
2023-05-03T00:12:11.412Z,98.97
2023-05-03T00:14:44.394Z,98.54
2023-05-03T00:17:17.190Z,98.07
2023-05-03T00:19:50.281Z,97.94
2023-05-03T00:22:23.702Z,97.97
2023-05-03T00:24:56.801Z,98.03
2023-05-03T00:27:30.099Z,98.63
2023-05-03T00:30:05.193Z,98.77
2023-05-03T00:32:38.613Z,98.99
2023-05-03T00:35:12.065Z,99.39
2023-05-03T00:37:45.172Z,99.71
2023-05-03T00:40:19.076Z,100.00
2023-05-03T00:42:51.892Z,100.00
2023-05-03T00:45:25.445Z,100.00
2023-05-03T00:47:58.311Z,100.00
2023-05-03T00:50:31.685Z,100.00
2023-05-03T00:53:04.681Z,100.00
2023-05-03T00:55:38.760Z,100.00
2023-05-03T00:58:12.239Z,100.00
2023-05-03T01:00:45.100Z,100.00
2023-05-03T01:03:18.226Z,100.00
2023-05-03T01:06:01.725Z,100.00
2023-05-03T01:08:48.124Z,100.00
2023-05-03T01:11:27.683Z,100.00
2023-05-03T01:14:27.803Z,100.00
2023-05-03T01:17:08.310Z,100.00
2023-05-03T01:19:54.641Z,100.00
2023-05-03T01:23:02.440Z,100.00
2023-05-03T01:25:35.759Z,100.00
2023-05-03T01:28:08.807Z,100.00
2023-05-03T01:30:42.627Z,100.00
2023-05-03T01:33:37.967Z,100.00
2023-05-03T01:36:17.974Z,100.00
2023-05-03T01:38:51.423Z,100.00
2023-05-03T01:41:25.874Z,100.00
2023-05-03T01:43:58.728Z,100.00
2023-05-03T01:46:32.068Z,100.00
2023-05-03T01:49:04.937Z,100.00
2023-05-03T01:51:38.918Z,100.00
2023-05-03T01:54:11.652Z,100.00
2023-05-03T01:56:44.893Z,100.00
2023-05-03T01:59:17.711Z,100.00
2023-05-03T02:01:50.830Z,100.00
2023-05-03T02:04:23.719Z,100.00
2023-05-03T02:06:56.926Z,100.00
2023-05-03T02:09:29.606Z,100.00
2023-05-03T02:12:02.480Z,100.00
2023-05-03T02:14:35.969Z,100.00
2023-05-03T02:17:09.454Z,100.00
2023-05-03T02:19:43.244Z,100.00
2023-05-03T02:22:16.028Z,100.00
2023-05-03T02:24:49.240Z,100.00
2023-05-03T02:27:22.161Z,100.00
2023-05-03T02:29:55.608Z,100.00
2023-05-03T02:32:28.980Z,100.00
2023-05-03T02:35:02.190Z,100.00
2023-05-03T02:37:35.470Z,100.00
2023-05-03T02:40:10.038Z,100.00
2023-05-03T02:42:43.617Z,100.00
2023-05-03T02:45:17.420Z,100.00
2023-05-03T02:47:50.582Z,100.00
2023-05-03T02:50:23.782Z,100.00
2023-05-03T02:52:57.039Z,100.00
2023-05-03T02:55:30.517Z,100.00
2023-05-03T02:58:03.519Z,100.00
2023-05-03T03:00:36.845Z,100.00
2023-05-03T03:03:09.925Z,100.00
2023-05-03T03:05:44.137Z,100.00
2023-05-03T03:08:19.266Z,100.00
2023-05-03T03:10:52.758Z,100.00
2023-05-03T03:13:26.619Z,100.00
2023-05-03T03:16:00.088Z,100.00
2023-05-03T03:18:34.743Z,100.00
2023-05-03T03:21:07.967Z,100.00
2023-05-03T03:23:41.281Z,100.00
2023-05-03T03:26:14.315Z,98.41
2023-05-03T03:28:48.136Z,97.38
2023-05-03T03:31:22.835Z,96.84
2023-05-03T03:33:56.104Z,96.40
2023-05-03T03:36:30.983Z,95.16
2023-05-03T03:39:05.354Z,94.06
2023-05-03T03:41:39.386Z,93.21
2023-05-03T03:44:12.482Z,91.99
2023-05-03T03:46:47.252Z,90.87
2023-05-03T03:49:21.935Z,89.63
2023-05-03T03:51:54.788Z,87.64
2023-05-03T03:54:28.017Z,86.33
2023-05-03T03:57:02.591Z,85.69
2023-05-03T03:59:35.601Z,84.59
2023-05-03T04:02:09.003Z,84.08
2023-05-03T04:04:42.323Z,83.30
2023-05-03T04:07:15.842Z,83.31
2023-05-03T04:09:49.473Z,82.44
2023-05-03T04:12:22.749Z,81.78
2023-05-03T04:14:57.517Z,81.29
2023-05-03T04:17:32.280Z,81.74
2023-05-03T04:20:08.140Z,81.41
2023-05-03T04:22:41.696Z,80.98
2023-05-03T04:25:14.795Z,79.86
2023-05-03T04:27:49.203Z,79.59
2023-05-03T04:30:22.939Z,78.95
2023-05-03T04:32:59.345Z,78.63
2023-05-03T04:35:33.646Z,78.28
2023-05-03T04:38:09.278Z,78.39
2023-05-03T04:40:42.771Z,78.76
2023-05-03T04:43:15.984Z,78.72
2023-05-03T04:45:51.397Z,79.02
2023-05-03T04:48:26.271Z,79.81
2023-05-03T04:50:59.678Z,80.39
2023-05-03T04:53:32.986Z,81.33
2023-05-03T04:56:08.436Z,80.90
2023-05-03T04:58:43.308Z,80.66
2023-05-03T05:01:16.584Z,81.23
2023-05-03T05:03:49.983Z,81.01
2023-05-03T05:06:24.496Z,81.00
2023-05-03T05:08:57.701Z,81.10
2023-05-03T05:11:30.691Z,80.49
2023-05-03T05:14:03.904Z,79.89
2023-05-03T05:16:38.534Z,79.34
2023-05-03T05:19:11.780Z,79.23
2023-05-03T05:21:45.111Z,79.38
2023-05-03T05:24:18.386Z,79.53
2023-05-03T05:26:51.826Z,79.12
2023-05-03T05:29:25.387Z,77.95
2023-05-03T05:32:00.203Z,78.05
2023-05-03T05:34:43.702Z,77.74
2023-05-03T05:37:09.376Z,77.50
2023-05-03T05:39:43.239Z,76.47
2023-05-03T05:42:17.722Z,74.80
2023-05-03T05:44:52.738Z,73.73
2023-05-03T05:47:27.550Z,73.15
2023-05-03T05:50:19.154Z,71.54
2023-05-03T05:52:45.273Z,71.63
2023-05-03T05:55:18.965Z,70.92
2023-05-03T05:57:52.139Z,70.31
2023-05-03T06:00:28.805Z,68.47
2023-05-03T06:03:02.028Z,68.14
2023-05-03T06:05:36.027Z,66.34
2023-05-03T06:08:09.561Z,65.40
2023-05-03T06:10:42.576Z,66.33
2023-05-03T06:13:15.718Z,66.98
2023-05-03T06:15:49.126Z,66.39
2023-05-03T06:18:22.201Z,66.29
2023-05-03T06:20:55.045Z,66.03
2023-05-03T06:23:28.840Z,60.29
2023-05-03T06:26:02.486Z,58.67
2023-05-03T06:28:36.379Z,59.28
2023-05-03T06:31:09.886Z,60.34
2023-05-03T06:33:42.820Z,56.53
2023-05-03T06:36:15.954Z,55.64
2023-05-03T06:38:48.732Z,55.37
2023-05-03T06:41:21.572Z,54.98
2023-05-03T06:43:54.654Z,55.49
2023-05-03T06:46:30.045Z,54.30
2023-05-03T06:49:04.387Z,55.20
2023-05-03T06:51:38.160Z,54.74
2023-05-03T06:54:11.685Z,54.71
2023-05-03T06:56:44.830Z,52.75
2023-05-03T06:59:19.102Z,52.74
2023-05-03T07:01:52.042Z,53.10
2023-05-03T07:04:25.422Z,49.87
2023-05-03T07:06:58.326Z,47.95
2023-05-03T07:09:42.714Z,46.77
2023-05-03T07:12:07.000Z,44.37
2023-05-03T07:14:41.349Z,44.91
2023-05-03T07:17:14.012Z,44.97
2023-05-03T07:19:47.016Z,44.84
2023-05-03T07:22:24.749Z,45.53
2023-05-03T07:24:59.984Z,46.04
2023-05-03T07:27:33.025Z,46.97
2023-05-03T07:30:07.201Z,45.29
2023-05-03T07:32:40.959Z,45.16
2023-05-03T07:35:14.179Z,45.24
2023-05-03T07:37:47.061Z,45.58
2023-05-03T07:40:20.211Z,44.80
2023-05-03T07:42:53.124Z,45.29
2023-05-03T07:45:26.368Z,44.85
2023-05-03T07:47:59.496Z,44.97
2023-05-03T07:50:33.386Z,44.88
2023-05-03T07:53:06.292Z,44.38
2023-05-03T07:55:39.846Z,44.86
2023-05-03T07:58:12.488Z,45.05
2023-05-03T08:00:45.592Z,43.21
2023-05-03T08:03:18.828Z,43.05
2023-05-03T08:05:52.406Z,43.40
2023-05-03T08:08:25.954Z,43.47
2023-05-03T08:10:59.222Z,42.57
2023-05-03T08:13:32.272Z,43.12
2023-05-03T08:16:06.812Z,42.76
2023-05-03T08:18:39.624Z,44.72
2023-05-03T08:21:13.830Z,43.94
2023-05-03T08:23:46.612Z,44.88
2023-05-03T08:26:19.846Z,44.87
2023-05-03T08:28:52.921Z,43.77
2023-05-03T08:31:26.217Z,43.07
2023-05-03T08:33:59.367Z,43.64
2023-05-03T08:36:33.167Z,44.70
2023-05-03T08:39:10.563Z,43.34
2023-05-03T08:41:43.778Z,43.42
2023-05-03T08:44:26.046Z,43.89
2023-05-03T08:46:59.731Z,43.90
2023-05-03T08:49:35.531Z,45.11
2023-05-03T08:52:09.064Z,44.36
2023-05-03T08:54:42.696Z,44.13
2023-05-03T08:57:19.590Z,43.43
2023-05-03T08:59:58.126Z,43.29
2023-05-03T09:02:32.957Z,42.51
2023-05-03T09:05:07.339Z,42.88
2023-05-03T09:07:41.350Z,41.13
2023-05-03T09:10:26.215Z,41.29
2023-05-03T09:13:03.687Z,41.69
2023-05-03T09:15:37.460Z,42.74
2023-05-03T09:18:19.309Z,42.35
2023-05-03T09:20:53.538Z,42.38
2023-05-03T09:23:32.060Z,43.07
2023-05-03T09:26:05.155Z,42.99
2023-05-03T09:28:44.554Z,41.75
2023-05-03T09:31:17.310Z,41.99
2023-05-03T09:33:50.494Z,41.24
2023-05-03T09:36:23.338Z,41.41
2023-05-03T09:38:56.793Z,41.69
2023-05-03T09:41:32.053Z,42.02
2023-05-03T09:44:04.997Z,41.53
2023-05-03T09:46:37.852Z,41.15
2023-05-03T09:49:10.649Z,41.01
2023-05-03T09:51:43.651Z,41.77
2023-05-03T09:54:17.973Z,41.20
2023-05-03T09:56:49.936Z,40.84
2023-05-03T09:59:23.040Z,41.11
2023-05-03T10:01:59.881Z,40.50
2023-05-03T10:04:43.931Z,40.88
2023-05-03T10:07:19.790Z,41.22
2023-05-03T10:09:53.448Z,41.47
2023-05-03T10:12:27.188Z,41.32
2023-05-03T10:15:02.338Z,40.88
2023-05-03T10:17:47.727Z,41.75
2023-05-03T10:20:24.199Z,41.20
2023-05-03T10:23:12.657Z,40.71
2023-05-03T10:26:12.323Z,40.57
2023-05-03T10:28:46.222Z,40.46
2023-05-03T10:31:48.728Z,40.62
2023-05-03T10:34:27.021Z,40.88
2023-05-03T10:37:06.198Z,40.24
2023-05-03T10:39:41.038Z,40.67
2023-05-03T10:42:13.999Z,41.16
2023-05-03T10:44:55.111Z,40.94
2023-05-03T10:47:28.397Z,41.40
2023-05-03T10:50:26.039Z,41.02
2023-05-03T10:52:59.477Z,39.74
2023-05-03T10:55:34.346Z,39.62
2023-05-03T10:58:08.606Z,40.60
2023-05-03T11:00:44.852Z,39.62
2023-05-03T11:03:54.489Z,40.00
2023-05-03T11:06:37.125Z,39.98
2023-05-03T11:09:14.119Z,40.82
2023-05-03T11:11:48.872Z,40.37
2023-05-03T11:14:21.819Z,40.25
2023-05-03T11:16:56.448Z,40.27
2023-05-03T11:19:30.336Z,39.79
2023-05-03T11:22:03.805Z,40.12
2023-05-03T11:24:36.605Z,39.84
2023-05-03T11:27:11.984Z,39.32
2023-05-03T11:29:51.335Z,39.55
2023-05-03T11:32:25.884Z,39.65
2023-05-03T11:35:01.510Z,40.25
2023-05-03T11:37:36.206Z,39.95
2023-05-03T11:40:13.350Z,39.38
2023-05-03T11:43:02.196Z,39.77
2023-05-03T11:45:44.153Z,40.54
2023-05-03T11:48:19.055Z,39.79
2023-05-03T11:50:56.776Z,40.98
2023-05-03T11:53:29.702Z,39.88
2023-05-03T11:56:03.543Z,39.13
2023-05-03T11:58:36.804Z,39.35
2023-05-03T12:01:10.205Z,40.10
2023-05-03T12:03:43.985Z,40.29
2023-05-03T12:06:19.283Z,39.67
2023-05-03T12:08:53.077Z,41.11
2023-05-03T12:11:28.173Z,41.09
2023-05-03T12:14:04.194Z,40.82
2023-05-03T12:16:52.383Z,40.81
2023-05-03T12:19:31.387Z,40.41
2023-05-03T12:24:39.274Z,39.22
2023-05-03T12:27:13.903Z,39.60
2023-05-03T12:29:47.938Z,40.07
2023-05-03T12:32:22.969Z,40.26
2023-05-03T12:35:02.020Z,40.52
2023-05-03T12:37:38.124Z,40.01
2023-05-03T12:40:31.513Z,39.41
2023-05-03T12:42:45.852Z,39.54
2023-05-03T12:45:21.180Z,39.30
2023-05-03T12:47:55.136Z,39.11
2023-05-03T12:50:30.988Z,39.41
2023-05-03T12:53:02.853Z,40.48
2023-05-03T12:55:41.885Z,40.63
2023-05-03T13:01:22.358Z,40.01
2023-05-03T13:03:22.846Z,40.06
2023-05-03T13:05:55.949Z,40.81
2023-05-03T13:08:34.848Z,40.45
2023-05-03T13:11:03.303Z,40.55
2023-05-03T13:13:36.589Z,39.60
2023-05-03T13:16:10.283Z,40.16
2023-05-03T13:18:45.045Z,39.46
2023-05-03T13:21:18.262Z,40.01
2023-05-03T13:23:51.161Z,39.00
2023-05-03T13:26:24.160Z,38.23
2023-05-03T13:28:57.426Z,38.33
2023-05-03T13:31:30.599Z,39.75
2023-05-03T13:34:03.873Z,40.53
2023-05-03T13:36:37.112Z,39.65
2023-05-03T13:39:12.552Z,39.39
2023-05-03T13:41:48.014Z,38.98
2023-05-03T13:44:20.298Z,38.32
2023-05-03T13:46:53.997Z,37.62
2023-05-03T13:49:28.596Z,38.21
2023-05-03T13:52:01.265Z,37.81
2023-05-03T13:54:34.546Z,38.01
2023-05-03T13:57:07.187Z,38.16
2023-05-03T13:59:39.994Z,38.19
2023-05-03T14:02:13.054Z,38.40
2023-05-03T14:04:46.719Z,37.86
2023-05-03T14:07:19.917Z,37.76
2023-05-03T14:09:52.857Z,38.68
2023-05-03T14:12:29.286Z,37.03
2023-05-03T14:15:05.682Z,36.83
2023-05-03T14:17:39.043Z,36.85
2023-05-03T14:20:13.053Z,37.22
2023-05-03T14:22:47.430Z,37.83
2023-05-03T14:25:19.667Z,38.08
2023-05-03T14:27:52.274Z,36.54
2023-05-03T14:30:25.505Z,35.91
2023-05-03T14:32:58.540Z,36.52
2023-05-03T14:35:31.754Z,36.42
2023-05-03T14:38:04.461Z,36.35
2023-05-03T14:40:37.658Z,36.34
2023-05-03T14:43:11.189Z,36.12
2023-05-03T14:45:45.623Z,36.53
2023-05-03T14:48:18.809Z,36.84
2023-05-03T14:50:53.092Z,37.04
2023-05-03T14:53:26.001Z,37.33
2023-05-03T14:55:58.992Z,37.14
2023-05-03T14:58:33.123Z,37.30
2023-05-03T15:01:06.730Z,37.20
2023-05-03T15:03:40.251Z,37.95
2023-05-03T15:06:13.250Z,38.40
2023-05-03T15:08:46.146Z,39.06
2023-05-03T15:11:19.491Z,39.38
2023-05-03T15:13:52.398Z,38.57
2023-05-03T15:16:26.275Z,38.88
2023-05-03T15:18:59.204Z,39.19
2023-05-03T15:21:32.157Z,39.41
2023-05-03T15:24:05.542Z,39.36
2023-05-03T15:26:39.082Z,39.60
2023-05-03T15:29:12.649Z,39.63
2023-05-03T15:31:45.564Z,39.80
2023-05-03T15:34:18.649Z,39.54
2023-05-03T15:36:51.653Z,39.61
2023-05-03T15:39:25.286Z,39.13
2023-05-03T15:41:58.119Z,39.00
2023-05-03T15:44:31.072Z,39.94
2023-05-03T15:47:04.186Z,39.51
2023-05-03T15:49:38.552Z,39.05
2023-05-03T15:52:12.824Z,39.39
2023-05-03T15:54:45.443Z,39.91
2023-05-03T15:57:18.891Z,39.90
2023-05-03T15:59:51.768Z,39.50
2023-05-03T16:02:24.874Z,39.38
2023-05-03T16:04:57.771Z,39.21
2023-05-03T16:07:31.452Z,39.57
2023-05-03T16:10:04.494Z,39.77
2023-05-03T16:12:37.936Z,39.95
2023-05-03T16:15:12.543Z,40.29
2023-05-03T16:17:45.437Z,40.53
2023-05-03T16:20:18.461Z,40.83
2023-05-03T16:22:53.144Z,41.18
2023-05-03T16:25:26.808Z,41.62
2023-05-03T16:27:59.879Z,41.85
2023-05-03T16:30:34.065Z,43.44
2023-05-03T16:33:07.265Z,42.61
2023-05-03T16:35:40.163Z,42.15
2023-05-03T16:38:13.302Z,42.25
2023-05-03T16:40:46.566Z,43.84
2023-05-03T16:43:20.126Z,44.95
2023-05-03T16:46:01.877Z,45.75
2023-05-03T16:48:35.793Z,46.43
2023-05-03T16:51:08.585Z,46.98
2023-05-03T16:53:41.950Z,47.49
2023-05-03T16:56:15.707Z,47.92
2023-05-03T16:58:50.160Z,48.33
2023-05-03T17:01:23.303Z,49.01
2023-05-03T17:03:57.258Z,50.08
2023-05-03T17:06:31.723Z,50.73
2023-05-03T17:09:04.915Z,51.57
2023-05-03T17:11:39.131Z,52.39
2023-05-03T17:14:12.095Z,52.79
2023-05-03T17:16:46.400Z,53.79
2023-05-03T17:19:19.214Z,53.99
2023-05-03T17:21:52.032Z,54.44
2023-05-03T17:24:24.875Z,54.91
2023-05-03T17:26:57.745Z,55.19
2023-05-03T17:29:31.039Z,55.81
2023-05-03T17:32:04.910Z,56.43
2023-05-03T17:34:38.123Z,56.87
2023-05-03T17:37:10.877Z,57.49
2023-05-03T17:39:43.962Z,57.86
2023-05-03T17:42:17.134Z,58.19
2023-05-03T17:44:55.048Z,58.29
2023-05-03T17:47:27.694Z,58.79
2023-05-03T17:50:00.693Z,59.72
2023-05-03T17:52:33.482Z,60.58
2023-05-03T17:55:07.259Z,60.68
2023-05-03T17:57:40.338Z,60.67
2023-05-03T18:00:18.387Z,60.71
2023-05-03T18:02:51.534Z,61.37
2023-05-03T18:05:24.669Z,61.85
2023-05-03T18:07:57.953Z,61.44
2023-05-03T18:10:31.191Z,61.56
2023-05-03T18:13:04.865Z,62.15
2023-05-03T18:15:40.853Z,62.62
2023-05-03T18:18:13.737Z,63.52
2023-05-03T18:20:46.676Z,63.66
2023-05-03T18:23:19.713Z,63.73
2023-05-03T18:25:53.871Z,64.43
2023-05-03T18:28:26.061Z,64.87
2023-05-03T18:30:58.709Z,64.95
2023-05-03T18:33:33.920Z,65.66
2023-05-03T18:36:11.706Z,65.65
2023-05-03T18:38:44.522Z,65.82
2023-05-03T18:41:17.815Z,65.85
2023-05-03T18:43:52.197Z,66.11
2023-05-03T18:46:25.284Z,66.07
2023-05-03T18:48:58.137Z,66.71
2023-05-03T18:51:31.820Z,67.14
2023-05-03T18:54:04.615Z,67.72
2023-05-03T18:56:38.308Z,66.83
2023-05-03T18:59:11.347Z,66.43
2023-05-03T19:01:44.601Z,66.24
2023-05-03T19:04:17.696Z,66.37
2023-05-03T19:06:50.648Z,66.26
2023-05-03T19:09:23.682Z,66.06
2023-05-03T19:11:56.677Z,65.96
2023-05-03T19:14:29.551Z,65.82
2023-05-03T19:17:02.523Z,65.90
2023-05-03T19:19:35.720Z,66.60
2023-05-03T19:22:08.556Z,66.36
2023-05-03T19:24:42.929Z,66.82
2023-05-03T19:27:17.374Z,67.42
2023-05-03T19:29:50.132Z,67.87
2023-05-03T19:32:23.158Z,68.13
2023-05-03T19:34:56.014Z,68.65
2023-05-03T19:37:28.679Z,69.12
2023-05-03T19:40:01.625Z,69.32
2023-05-03T19:42:35.076Z,69.85
2023-05-03T19:45:10.079Z,70.26
2023-05-03T19:47:44.741Z,70.47
2023-05-03T19:50:18.181Z,71.51
2023-05-03T19:52:57.800Z,71.55
2023-05-03T19:55:31.107Z,72.19
2023-05-03T19:58:04.268Z,72.11
2023-05-03T20:00:37.029Z,72.52
2023-05-03T20:03:10.124Z,72.77
2023-05-03T20:05:43.501Z,73.21
2023-05-03T20:08:16.450Z,74.36
2023-05-03T20:10:50.144Z,73.77
2023-05-03T20:13:24.940Z,72.54
2023-05-03T20:15:57.786Z,71.26
2023-05-03T20:18:30.976Z,71.08
2023-05-03T20:21:04.209Z,71.21
2023-05-03T20:23:38.065Z,71.69
2023-05-03T20:26:11.205Z,72.60
2023-05-03T20:28:44.003Z,73.11
2023-05-03T20:31:17.767Z,73.44
2023-05-03T20:33:50.602Z,74.09
2023-05-03T20:36:23.654Z,74.53
2023-05-03T20:38:56.811Z,74.94
2023-05-03T20:41:29.776Z,75.26
2023-05-03T20:44:02.854Z,76.19
2023-05-03T20:46:35.812Z,76.01
2023-05-03T20:49:10.532Z,76.08
2023-05-03T20:51:43.437Z,76.13
2023-05-03T20:54:16.681Z,76.83
2023-05-03T20:56:49.423Z,77.35
2023-05-03T20:59:22.408Z,77.75
2023-05-03T21:01:56.961Z,78.07
2023-05-03T21:04:30.008Z,78.35
2023-05-03T23:53:22.002Z,96.60
2023-05-03T23:55:55.175Z,95.89
2023-05-03T23:58:28.028Z,95.70
